Time;durP1;ratioP1;P1;durP2;ratioP2;P2;SDS_P1;SDS_P2;PMS_P1;PMS_P2;Temp;Humidity;BMP_temperature;BMP_pressure;BME280_temperature;BME280_humidity;BME280_pressure;Samples;Min_cycle;Max_cycle;Signal;HPM_P1;HPM_P2
2021/11/02 00:01:30;;;;;;;6.83;3.63;;;;;;;;;;6158905;23;20265;-89
2021/11/02 00:04:37;;;;;;;7.70;3.07;;;;;;;;;;6158783;23;20176;-92
2021/11/02 00:07:45;;;;;;;23.67;9.13;;;;;;;;;;6157648;23;20188;-90
2021/11/02 00:10:52;;;;;;;23.60;9.73;;;;;;;;;;6157519;23;20221;-91
2021/11/02 00:14:04;;;;;;;10.10;4.50;;;;;;;;;;6157781;23;20180;-88
2021/11/02 00:17:15;;;;;;;40.90;14.13;;;;;;;;;;6158492;23;20173;-89
2021/11/02 00:20:21;;;;;;;14.07;5.60;;;;;;;;;;6157616;23;20205;-89
2021/11/02 00:23:27;;;;;;;8.80;4.10;;;;;;;;;;6144706;23;20199;-88
2021/11/02 00:26:37;;;;;;;6.67;3.87;;;;;;;;;;6144258;23;20178;-89
2021/11/02 00:29:43;;;;;;;31.67;10.63;;;;;;;;;;6144348;23;20516;-90
2021/11/02 00:32:50;;;;;;;18.93;7.83;;;;;;;;;;6145140;23;20169;-89
2021/11/02 00:35:56;;;;;;;14.88;6.18;;;;;;;;;;6144005;23;20213;-90
2021/11/02 00:39:01;;;;;;;9.90;4.53;;;;;;;;;;6144271;23;20185;-89
2021/11/02 00:42:09;;;;;;;6.97;3.37;;;;;;;;;;6145363;23;20278;-88
2021/11/02 00:45:15;;;;;;;8.17;4.33;;;;;;;;;;6143190;23;20177;-89
2021/11/02 00:48:31;;;;;;;8.07;4.80;;;;;;;;;;6144338;23;20190;-89
2021/11/02 00:51:36;;;;;;;9.33;3.70;;;;;;;;;;6143926;23;20197;-90
2021/11/02 00:54:42;;;;;;;7.20;3.60;;;;;;;;;;6143319;23;20174;-89
2021/11/02 00:57:49;;;;;;;10.47;4.20;;;;;;;;;;6144320;23;20176;-89
2021/11/02 01:00:54;;;;;;;11.67;3.90;;;;;;;;;;6144308;23;20172;-89
2021/11/02 01:04:04;;;;;;;5.63;2.95;;;;;;;;;;6143319;23;20181;-90
2021/11/02 01:07:09;;;;;;;6.73;3.40;;;;;;;;;;6143927;23;20214;-90
2021/11/02 01:10:16;;;;;;;5.82;3.20;;;;;;;;;;6143879;23;20169;-89
2021/11/02 01:13:23;;;;;;;5.53;2.65;;;;;;;;;;6142011;23;20290;-90
2021/11/02 01:16:56;;;;;;;5.47;2.83;;;;;;;;;;6142148;23;20185;-90
2021/11/02 01:20:04;;;;;;;6.70;3.27;;;;;;;;;;6143562;23;20189;-90
2021/11/02 01:23:10;;;;;;;6.82;2.90;;;;;;;;;;6142923;23;20192;-90
2021/11/02 01:26:15;;;;;;;6.70;3.05;;;;;;;;;;6143080;23;20172;-89
2021/11/02 01:29:23;;;;;;;6.17;3.27;;;;;;;;;;6141507;23;20172;-89
2021/11/02 01:32:29;;;;;;;8.85;3.70;;;;;;;;;;6142573;23;20229;-90
2021/11/02 01:35:34;;;;;;;6.93;3.70;;;;;;;;;;6144074;23;20512;-90
2021/11/02 01:38:42;;;;;;;5.90;3.58;;;;;;;;;;6143723;23;20296;-90
2021/11/02 01:41:51;;;;;;;7.60;4.13;;;;;;;;;;6143062;23;20148;-89
2021/11/02 01:45:00;;;;;;;7.18;3.83;;;;;;;;;;6142517;23;20189;-92
2021/11/02 01:48:07;;;;;;;12.87;4.13;;;;;;;;;;6143580;23;20176;-89
2021/11/02 01:51:23;;;;;;;8.77;4.13;;;;;;;;;;6143799;23;20241;-90
2021/11/02 01:54:29;;;;;;;6.47;3.63;;;;;;;;;;6143574;23;20172;-91
2021/11/02 01:57:34;;;;;;;7.33;3.83;;;;;;;;;;6144004;23;20160;-92
2021/11/02 02:00:41;;;;;;;7.55;4.28;;;;;;;;;;6142886;23;20276;-90
2021/11/02 02:03:51;;;;;;;6.70;4.03;;;;;;;;;;6143377;23;20174;-90
2021/11/02 02:07:03;;;;;;;10.73;5.03;;;;;;;;;;6144159;23;20165;-92
2021/11/02 02:10:10;;;;;;;8.53;4.53;;;;;;;;;;6144063;23;20176;-90
2021/11/02 02:13:19;;;;;;;13.32;5.78;;;;;;;;;;6142728;23;20173;-91
2021/11/02 02:16:29;;;;;;;7.63;3.33;;;;;;;;;;6143337;23;20173;-90
2021/11/02 02:19:47;;;;;;;6.53;4.03;;;;;;;;;;6143030;23;20173;-89
2021/11/02 02:22:59;;;;;;;6.00;3.60;;;;;;;;;;6142866;23;20193;-90
2021/11/02 02:26:09;;;;;;;6.88;3.72;;;;;;;;;;6141787;23;20173;-89
2021/11/02 02:29:17;;;;;;;7.05;3.83;;;;;;;;;;6143626;23;20186;-91
2021/11/02 02:32:24;;;;;;;7.13;3.80;;;;;;;;;;6140693;23;20196;-91
2021/11/02 02:35:30;;;;;;;7.57;3.97;;;;;;;;;;6139257;23;20508;-90
2021/11/02 02:38:37;;;;;;;7.18;3.80;;;;;;;;;;6139595;23;20168;-91
2021/11/02 02:41:46;;;;;;;10.63;4.33;;;;;;;;;;6142499;23;20168;-91
2021/11/02 02:44:55;;;;;;;15.27;5.22;;;;;;;;;;6143621;23;20168;-89
2021/11/02 02:48:04;;;;;;;9.37;4.60;;;;;;;;;;6142300;23;20271;-91
2021/11/02 02:51:12;;;;;;;23.90;9.27;;;;;;;;;;6142920;23;20196;-90
2021/11/02 02:54:21;;;;;;;13.07;6.37;;;;;;;;;;6143538;23;20242;-91
2021/11/02 02:57:29;;;;;;;11.77;4.97;;;;;;;;;;6143484;23;20201;-92
2021/11/02 03:00:48;;;;;;;11.33;4.73;;;;;;;;;;6143101;23;20165;-90
2021/11/02 03:03:55;;;;;;;9.97;4.80;;;;;;;;;;6143693;23;20173;-90
2021/11/02 03:07:01;;;;;;;10.10;4.87;;;;;;;;;;6143260;23;20177;-90
2021/11/02 03:10:11;;;;;;;10.48;5.20;;;;;;;;;;6142405;23;20632;-91
2021/11/02 03:13:19;;;;;;;12.63;5.50;;;;;;;;;;6141204;23;20168;-91
2021/11/02 03:16:36;;;;;;;9.33;5.23;;;;;;;;;;6142591;23;20174;-92
2021/11/02 03:44:00;;;;;;;12.70;5.87;;;;;;;;;;6141476;23;20182;-90
2021/11/02 03:50:45;;;;;;;10.20;5.60;;;;;;;;;;6141117;23;20173;-91
2021/11/02 03:57:21;;;;;;;12.50;5.80;;;;;;;;;;6141732;23;20221;-89
2021/11/02 04:00:58;;;;;;;12.80;6.07;;;;;;;;;;6142194;23;20243;-88
2021/11/02 05:07:35;;;;;;;7.37;4.30;;;;;;;;;;6066653;23;20207;-91
2021/11/02 05:48:51;;;;;;;7.67;4.63;;;;;;;;;;6154199;23;20203;-91
2021/11/02 05:56:04;;;;;;;10.80;5.83;;;;;;;;;;6127245;23;20199;-89
2021/11/02 05:59:23;;;;;;;10.90;5.30;;;;;;;;;;6156645;23;20165;-90
2021/11/02 06:06:02;;;;;;;16.57;8.07;;;;;;;;;;6153179;23;20169;-89
2021/11/02 06:09:18;;;;;;;17.50;8.67;;;;;;;;;;6154920;23;20169;-91
2021/11/02 06:29:39;;;;;;;6.63;3.20;;;;;;;;;;6153143;23;20212;-90
2021/11/02 06:32:50;;;;;;;5.67;3.17;;;;;;;;;;6153906;23;20236;-88
2021/11/02 06:36:06;;;;;;;5.70;3.20;;;;;;;;;;6153041;23;20205;-92
2021/11/02 06:43:06;;;;;;;3.60;2.70;;;;;;;;;;6155394;23;20173;-90
2021/11/02 06:46:37;;;;;;;7.13;3.60;;;;;;;;;;6155032;23;20176;-91
2021/11/02 06:53:39;;;;;;;6.10;3.57;;;;;;;;;;6151429;23;20204;-91
2021/11/02 07:18:13;;;;;;;7.73;4.80;;;;;;;;;;6152603;23;20173;-89
2021/11/02 07:21:24;;;;;;;8.67;4.27;;;;;;;;;;6153606;23;20169;-88
2021/11/02 07:24:36;;;;;;;6.97;4.30;;;;;;;;;;6153830;23;20176;-88
2021/11/02 08:46:32;;;;;;;15.93;8.53;;;;;;;;;;6155551;23;20169;-90
2021/11/02 08:49:41;;;;;;;15.30;9.03;;;;;;;;;;6154338;23;20172;-91
2021/11/02 08:52:50;;;;;;;18.40;9.88;;;;;;;;;;6156170;23;20199;-91
2021/11/02 08:56:08;;;;;;;15.20;8.70;;;;;;;;;;6156666;23;20172;-90
2021/11/02 09:02:36;;;;;;;17.67;8.90;;;;;;;;;;6159166;23;20208;-89
2021/11/02 09:05:43;;;;;;;14.45;9.00;;;;;;;;;;6155555;23;20204;-90
2021/11/02 23:11:39;;;;;;;85.57;7.07;;;;;;;;;;6121595;23;20178;-90
2021/11/02 23:14:49;;;;;;;52.57;7.03;;;;;;;;;;6120899;23;20217;-90
2021/11/02 23:17:57;;;;;;;167.30;9.27;;;;;;;;;;6103482;23;20154;-91
2021/11/02 23:21:10;;;;;;;124.97;8.83;;;;;;;;;;6105804;23;20182;-91
2021/11/02 23:37:57;;;;;;;57.07;7.17;;;;;;;;;;6198294;23;20201;-91
2021/11/02 23:41:03;;;;;;;39.77;6.67;;;;;;;;;;6192011;23;20207;-90
2021/11/02 23:44:11;;;;;;;64.50;7.33;;;;;;;;;;6191838;23;20182;-89
2021/11/02 23:47:21;;;;;;;77.37;6.80;;;;;;;;;;6192534;23;20184;-91
2021/11/02 23:50:32;;;;;;;60.00;6.77;;;;;;;;;;6191626;23;20215;-90
2021/11/02 23:53:42;;;;;;;62.47;6.13;;;;;;;;;;6192896;23;20216;-88
2021/11/02 23:56:55;;;;;;;38.00;7.43;;;;;;;;;;6193028;23;20163;-91
